Jefferson Park, Alabama
Current Conditions -  °F | °C
As of 2:15 PM on Monday 26 Jan 2015 (Local Time) from KBHM Reporting Station
Scattered Clouds Scattered Clouds  
Wind Chill: 42°   Ceiling: Unl
Heat Index: 46°   Visibility: 10mi
Dew Point: 31°   Wind: 7mph
Humidity: 56%   Direction: 330°NNW
Pressure: 30"   Gusts: NA
Location:  33.5393°N, 86.6626°W
Report Text: KBHM 262015Z 33006KT 10SM SCT031 08/M01 A3000 RMK AO2 T00781006
Loading
Personal Weather Stations






























Interactive Weather Map New forecast layout! Learn more

10-Day Weather Forecast

Advertisements
Track Severe Weather on mobile